AYPY/POM METAR and TAF weather

Enter ICAO airport designator
Station Type Date Time Source
AYPY METAR 2020/09/24 08:00 UTC NOAA

AYPY 240800Z 16020KT 9999 FEW015 SCT040 HZ 27/24 Q1009


Station Type Date Time Source
AYPY Decoded METAR 2020/09/24 08:00 UTC NOAA

Moresby, Papua New Guinea (AYPY) 09-26S 147-13E 49M
Sep 24, 2020 - 04:00 AM EDT / 2020.09.24 0800 UTC
Wind: from the SSE (160 degrees) at 23 MPH (20 KT):0
Visibility: greater than 7 mile(s):0
Sky conditions: partly cloudy
Weather: haze
Temperature: 80 F (27 C)
Dew Point: 75 F (24 C)
Relative Humidity: 83%
Pressure (altimeter): 29.80 in. Hg (1009 hPa)
ob: AYPY 240800Z 16020KT 9999 FEW015 SCT040 HZ 27/24 Q1009
cycle: 8

Station Type Date Time Source
AYPY TAF 2020/09/23 18:27 UTC NOAA

TAF TAF AYPY 231544Z 2318/2418 VRB03KT 9999 BKN040
FM240000 16010KT 9999 BKN018
FM240400 16015KT 9999 -SCT BKN017 PROB30 INTER 2405/2410 TSRA BKN008 FEW017CB T 25 27 30 31 Q 1007 1008 1010 1009 AREA QNH FOR AYPY FIR VALID 2318/2418 1010 HPA

Example: see airport list